sensor_id;sensor_type;location;lat;lon;timestamp;pressure;altitude;pressure_sealevel;temperature;humidity
61786;BME280;47692;53.714;11.372;2024-01-30T00:02:14;102473.19;;;3.00;87.82
61786;BME280;47692;53.714;11.372;2024-01-30T00:04:39;102475.81;;;3.01;87.81
61786;BME280;47692;53.714;11.372;2024-01-30T00:07:04;102475.81;;;3.01;87.23
61786;BME280;47692;53.714;11.372;2024-01-30T00:09:30;102474.09;;;3.02;87.05
61786;BME280;47692;53.714;11.372;2024-01-30T00:11:55;102469.34;;;2.88;87.31
61786;BME280;47692;53.714;11.372;2024-01-30T00:14:21;102476.00;;;2.83;87.90
61786;BME280;47692;53.714;11.372;2024-01-30T00:16:46;102476.72;;;2.79;88.17
61786;BME280;47692;53.714;11.372;2024-01-30T00:19:12;102468.88;;;2.76;88.44
61786;BME280;47692;53.714;11.372;2024-01-30T00:21:37;102468.66;;;2.70;88.87
61786;BME280;47692;53.714;11.372;2024-01-30T00:24:03;102469.38;;;2.67;89.47
61786;BME280;47692;53.714;11.372;2024-01-30T00:26:28;102466.13;;;2.71;89.29
61786;BME280;47692;53.714;11.372;2024-01-30T00:28:54;102466.97;;;2.72;89.70
61786;BME280;47692;53.714;11.372;2024-01-30T00:31:19;102481.81;;;2.78;89.67
61786;BME280;47692;53.714;11.372;2024-01-30T00:33:44;102479.28;;;2.79;90.21
61786;BME280;47692;53.714;11.372;2024-01-30T00:36:10;102469.63;;;2.73;90.26
61786;BME280;47692;53.714;11.372;2024-01-30T00:38:35;102471.09;;;2.67;90.59
61786;BME280;47692;53.714;11.372;2024-01-30T00:41:01;102473.44;;;2.61;90.76
61786;BME280;47692;53.714;11.372;2024-01-30T00:43:27;102467.28;;;2.57;91.04
61786;BME280;47692;53.714;11.372;2024-01-30T00:45:53;102468.84;;;2.53;91.47
61786;BME280;47692;53.714;11.372;2024-01-30T00:48:19;102459.13;;;2.46;91.89
61786;BME280;47692;53.714;11.372;2024-01-30T00:50:45;102464.41;;;2.49;91.99
61786;BME280;47692;53.714;11.372;2024-01-30T00:53:10;102456.63;;;2.48;91.23
61786;BME280;47692;53.714;11.372;2024-01-30T00:55:36;102448.72;;;2.43;91.16
61786;BME280;47692;53.714;11.372;2024-01-30T00:58:01;102443.56;;;2.43;91.28
61786;BME280;47692;53.714;11.372;2024-01-30T01:00:27;102440.72;;;2.37;91.60
61786;BME280;47692;53.714;11.372;2024-01-30T01:02:55;102443.22;;;2.34;91.90
61786;BME280;47692;53.714;11.372;2024-01-30T01:05:20;102444.69;;;2.29;92.11
61786;BME280;47692;53.714;11.372;2024-01-30T01:07:45;102440.38;;;2.28;92.16
61786;BME280;47692;53.714;11.372;2024-01-30T01:10:12;102441.97;;;2.24;92.21
61786;BME280;47692;53.714;11.372;2024-01-30T01:12:39;102449.63;;;2.22;92.31
61786;BME280;47692;53.714;11.372;2024-01-30T01:15:05;102447.13;;;2.24;92.68
61786;BME280;47692;53.714;11.372;2024-01-30T01:17:31;102441.00;;;2.22;92.28
61786;BME280;47692;53.714;11.372;2024-01-30T01:19:57;102439.19;;;2.19;92.43
61786;BME280;47692;53.714;11.372;2024-01-30T01:22:22;102435.63;;;2.16;92.51
61786;BME280;47692;53.714;11.372;2024-01-30T01:24:48;102434.81;;;2.17;93.05
61786;BME280;47692;53.714;11.372;2024-01-30T01:27:13;102435.56;;;2.14;92.96
61786;BME280;47692;53.714;11.372;2024-01-30T01:29:38;102444.13;;;2.13;92.76
61786;BME280;47692;53.714;11.372;2024-01-30T01:32:04;102446.63;;;2.12;93.16
61786;BME280;47692;53.714;11.372;2024-01-30T01:34:29;102441.25;;;2.05;92.90
61786;BME280;47692;53.714;11.372;2024-01-30T01:36:55;102440.22;;;2.02;92.90
61786;BME280;47692;53.714;11.372;2024-01-30T01:39:22;102442.00;;;2.03;92.94
61786;BME280;47692;53.714;11.372;2024-01-30T01:41:48;102437.75;;;2.05;93.04
61786;BME280;47692;53.714;11.372;2024-01-30T01:44:14;102443.97;;;2.10;93.67
61786;BME280;47692;53.714;11.372;2024-01-30T01:46:39;102444.91;;;2.12;93.42
61786;BME280;47692;53.714;11.372;2024-01-30T01:49:05;102444.13;;;2.13;94.23
61786;BME280;47692;53.714;11.372;2024-01-30T01:51:34;102449.38;;;2.16;93.99
61786;BME280;47692;53.714;11.372;2024-01-30T01:54:03;102456.66;;;2.26;94.42
61786;BME280;47692;53.714;11.372;2024-01-30T01:56:29;102451.63;;;2.30;94.43
61786;BME280;47692;53.714;11.372;2024-01-30T01:58:59;102443.31;;;2.37;94.49
61786;BME280;47692;53.714;11.372;2024-01-30T02:01:26;102453.97;;;2.46;95.02
61786;BME280;47692;53.714;11.372;2024-01-30T02:03:52;102455.06;;;2.51;95.55
61786;BME280;47692;53.714;11.372;2024-01-30T02:06:18;102450.81;;;2.53;95.54
61786;BME280;47692;53.714;11.372;2024-01-30T02:08:44;102448.47;;;2.59;96.21
61786;BME280;47692;53.714;11.372;2024-01-30T02:11:09;102453.16;;;2.70;96.45
61786;BME280;47692;53.714;11.372;2024-01-30T02:13:35;102456.91;;;2.78;96.44
61786;BME280;47692;53.714;11.372;2024-01-30T02:16:01;102461.41;;;2.84;96.60
61786;BME280;47692;53.714;11.372;2024-01-30T02:18:26;102454.44;;;2.81;96.18
61786;BME280;47692;53.714;11.372;2024-01-30T02:20:54;102449.88;;;2.74;96.61
61786;BME280;47692;53.714;11.372;2024-01-30T02:23:23;102457.47;;;2.71;96.87
61786;BME280;47692;53.714;11.372;2024-01-30T02:25:49;102457.34;;;2.66;96.70
61786;BME280;47692;53.714;11.372;2024-01-30T02:28:14;102457.38;;;2.68;97.30
61786;BME280;47692;53.714;11.372;2024-01-30T02:30:42;102449.88;;;2.74;97.18
61786;BME280;47692;53.714;11.372;2024-01-30T02:33:08;102449.91;;;2.75;96.74
61786;BME280;47692;53.714;11.372;2024-01-30T02:35:33;102449.09;;;2.77;96.39
61786;BME280;47692;53.714;11.372;2024-01-30T02:37:59;102444.59;;;2.71;96.20
61786;BME280;47692;53.714;11.372;2024-01-30T02:40:24;102442.84;;;2.70;96.52
61786;BME280;47692;53.714;11.372;2024-01-30T02:42:50;102439.16;;;2.63;96.64
61786;BME280;47692;53.714;11.372;2024-01-30T02:45:15;102439.09;;;2.62;96.76
61786;BME280;47692;53.714;11.372;2024-01-30T02:47:40;102433.81;;;2.58;96.63
61786;BME280;47692;53.714;11.372;2024-01-30T02:50:06;102424.34;;;2.57;96.76
61786;BME280;47692;53.714;11.372;2024-01-30T02:52:32;102425.22;;;2.58;96.88
61786;BME280;47692;53.714;11.372;2024-01-30T02:54:57;102420.00;;;2.56;96.68
61786;BME280;47692;53.714;11.372;2024-01-30T02:57:23;102423.63;;;2.62;96.19
61786;BME280;47692;53.714;11.372;2024-01-30T02:59:48;102427.84;;;2.59;95.98
61786;BME280;47692;53.714;11.372;2024-01-30T03:02:13;102422.63;;;2.58;95.77
61786;BME280;47692;53.714;11.372;2024-01-30T03:04:41;102434.97;;;2.67;95.62
61786;BME280;47692;53.714;11.372;2024-01-30T03:07:07;102424.56;;;2.64;95.84
61786;BME280;47692;53.714;11.372;2024-01-30T03:09:32;102426.03;;;2.57;95.80
61786;BME280;47692;53.714;11.372;2024-01-30T03:11:58;102424.91;;;2.50;96.35
61786;BME280;47692;53.714;11.372;2024-01-30T03:14:23;102424.69;;;2.44;96.46
61786;BME280;47692;53.714;11.372;2024-01-30T03:16:48;102424.69;;;2.44;96.75
61786;BME280;47692;53.714;11.372;2024-01-30T03:19:14;102427.50;;;2.50;97.37
61786;BME280;47692;53.714;11.372;2024-01-30T03:21:39;102426.56;;;2.48;96.85
61786;BME280;47692;53.714;11.372;2024-01-30T03:24:05;102429.94;;;2.47;97.31
61786;BME280;47692;53.714;11.372;2024-01-30T03:26:30;102424.91;;;2.50;97.34
61786;BME280;47692;53.714;11.372;2024-01-30T03:28:55;102417.63;;;2.40;97.44
61786;BME280;47692;53.714;11.372;2024-01-30T03:31:21;102417.63;;;2.40;97.82
61786;BME280;47692;53.714;11.372;2024-01-30T03:33:48;102416.94;;;2.44;97.82
61786;BME280;47692;53.714;11.372;2024-01-30T03:36:15;102415.25;;;2.45;97.93
61786;BME280;47692;53.714;11.372;2024-01-30T03:38:40;102415.19;;;2.43;98.47
61786;BME280;47692;53.714;11.372;2024-01-30T03:41:08;102412.47;;;2.40;98.58
61786;BME280;47692;53.714;11.372;2024-01-30T03:43:33;102416.06;;;2.43;98.89
61786;BME280;47692;53.714;11.372;2024-01-30T03:45:59;102415.97;;;2.40;98.70
61786;BME280;47692;53.714;11.372;2024-01-30T03:48:24;102412.63;;;2.43;98.38
61786;BME280;47692;53.714;11.372;2024-01-30T03:50:50;102416.13;;;2.45;98.32
61786;BME280;47692;53.714;11.372;2024-01-30T03:53:16;102404.97;;;2.46;98.15
61786;BME280;47692;53.714;11.372;2024-01-30T03:55:42;102413.44;;;2.42;98.21
61786;BME280;47692;53.714;11.372;2024-01-30T03:58:08;102412.03;;;2.50;97.65
61786;BME280;47692;53.714;11.372;2024-01-30T04:00:33;102407.69;;;2.49;97.78
61786;BME280;47692;53.714;11.372;2024-01-30T04:02:58;102405.69;;;2.42;97.29
61786;BME280;47692;53.714;11.372;2024-01-30T04:05:24;102400.31;;;2.36;97.44
61786;BME280;47692;53.714;11.372;2024-01-30T04:07:49;102402.06;;;2.37;97.43
61786;BME280;47692;53.714;11.372;2024-01-30T04:10:14;102405.47;;;2.36;97.72
61786;BME280;47692;53.714;11.372;2024-01-30T04:12:40;102401.97;;;2.34;97.71
61786;BME280;47692;53.714;11.372;2024-01-30T04:15:05;102401.97;;;2.34;97.67
61786;BME280;47692;53.714;11.372;2024-01-30T04:17:30;102399.97;;;2.26;97.68
61786;BME280;47692;53.714;11.372;2024-01-30T04:19:56;102395.44;;;2.21;97.57
61786;BME280;47692;53.714;11.372;2024-01-30T04:22:21;102384.13;;;2.17;98.15
61786;BME280;47692;53.714;11.372;2024-01-30T04:24:46;102384.03;;;2.14;98.26
61786;BME280;47692;53.714;11.372;2024-01-30T04:27:12;102385.66;;;2.12;98.18
61786;BME280;47692;53.714;11.372;2024-01-30T04:29:37;102388.22;;;2.12;98.14
61786;BME280;47692;53.714;11.372;2024-01-30T04:32:03;102386.38;;;2.08;97.91
61786;BME280;47692;53.714;11.372;2024-01-30T04:34:28;102394.50;;;2.19;98.47
61786;BME280;47692;53.714;11.372;2024-01-30T04:36:54;102388.38;;;2.15;98.36
61786;BME280;47692;53.714;11.372;2024-01-30T04:39:19;102397.97;;;2.19;98.81
61786;BME280;47692;53.714;11.372;2024-01-30T04:41:44;102393.53;;;2.15;98.83
61786;BME280;47692;53.714;11.372;2024-01-30T04:44:09;102394.34;;;2.14;98.93
61786;BME280;47692;53.714;11.372;2024-01-30T04:46:35;102385.56;;;2.09;99.54
61786;BME280;47692;53.714;11.372;2024-01-30T04:49:00;102382.41;;;1.95;99.40
61786;BME280;47692;53.714;11.372;2024-01-30T04:51:25;102380.72;;;1.96;99.59
61786;BME280;47692;53.714;11.372;2024-01-30T04:53:51;102383.31;;;1.96;100.00
61786;BME280;47692;53.714;11.372;2024-01-30T04:56:16;102374.53;;;1.90;100.00
61786;BME280;47692;53.714;11.372;2024-01-30T04:58:41;102378.91;;;1.93;100.00
61786;BME280;47692;53.714;11.372;2024-01-30T05:01:07;102377.91;;;1.89;100.00
61786;BME280;47692;53.714;11.372;2024-01-30T05:03:35;102385.50;;;1.86;100.00
61786;BME280;47692;53.714;11.372;2024-01-30T05:06:00;102382.81;;;1.83;100.00
61786;BME280;47692;53.714;11.372;2024-01-30T05:08:26;102375.81;;;1.79;100.00
61786;BME280;47692;53.714;11.372;2024-01-30T05:10:51;102389.97;;;1.90;100.00
61786;BME280;47692;53.714;11.372;2024-01-30T05:13:16;102384.81;;;1.90;100.00
61786;BME280;47692;53.714;11.372;2024-01-30T05:15:42;102384.94;;;1.93;100.00
61786;BME280;47692;53.714;11.372;2024-01-30T05:18:07;102384.81;;;1.90;100.00
61786;BME280;47692;53.714;11.372;2024-01-30T05:20:33;102381.41;;;1.91;100.00
61786;BME280;47692;53.714;11.372;2024-01-30T05:22:58;102377.97;;;1.91;100.00
61786;BME280;47692;53.714;11.372;2024-01-30T05:25:23;102377.78;;;1.86;100.00
61786;BME280;47692;53.714;11.372;2024-01-30T05:27:49;102370.75;;;1.82;100.00
61786;BME280;47692;53.714;11.372;2024-01-30T05:30:15;102366.41;;;1.81;100.00
61786;BME280;47692;53.714;11.372;2024-01-30T05:32:40;102372.97;;;1.73;100.00
61786;BME280;47692;53.714;11.372;2024-01-30T05:35:06;102379.03;;;1.75;100.00
61786;BME280;47692;53.714;11.372;2024-01-30T05:37:33;102363.34;;;1.69;100.00
61786;BME280;47692;53.714;11.372;2024-01-30T05:39:58;102363.09;;;1.63;100.00
61786;BME280;47692;53.714;11.372;2024-01-30T05:42:23;102363.00;;;1.59;100.00
61786;BME280;47692;53.714;11.372;2024-01-30T05:44:49;102359.41;;;1.56;100.00
61786;BME280;47692;53.714;11.372;2024-01-30T05:47:15;102357.69;;;1.56;100.00
61786;BME280;47692;53.714;11.372;2024-01-30T05:49:40;102356.44;;;1.68;100.00
61786;BME280;47692;53.714;11.372;2024-01-30T05:52:06;102366.63;;;1.65;100.00
61786;BME280;47692;53.714;11.372;2024-01-30T05:54:31;102358.09;;;1.44;100.00
61786;BME280;47692;53.714;11.372;2024-01-30T05:56:57;102350.53;;;1.49;100.00
61786;BME280;47692;53.714;11.372;2024-01-30T05:59:22;102359.72;;;1.64;100.00
61786;BME280;47692;53.714;11.372;2024-01-30T06:01:48;102345.38;;;1.70;100.00
61786;BME280;47692;53.714;11.372;2024-01-30T06:04:14;102344.50;;;1.70;100.00
61786;BME280;47692;53.714;11.372;2024-01-30T06:06:40;102350.47;;;1.69;100.00
61786;BME280;47692;53.714;11.372;2024-01-30T06:09:05;102348.03;;;1.72;100.00
61786;BME280;47692;53.714;11.372;2024-01-30T06:11:31;102342.88;;;1.72;100.00
61786;BME280;47692;53.714;11.372;2024-01-30T06:13:56;102351.91;;;1.83;100.00
61786;BME280;47692;53.714;11.372;2024-01-30T06:16:21;102343.38;;;1.84;100.00
61786;BME280;47692;53.714;11.372;2024-01-30T06:18:48;102331.31;;;1.83;100.00
61786;BME280;47692;53.714;11.372;2024-01-30T06:21:13;102338.13;;;1.83;100.00
61786;BME280;47692;53.714;11.372;2024-01-30T06:23:39;102338.84;;;1.78;100.00
61786;BME280;47692;53.714;11.372;2024-01-30T06:26:06;102334.22;;;1.70;100.00
61786;BME280;47692;53.714;11.372;2024-01-30T06:28:31;102331.44;;;1.65;100.00
61786;BME280;47692;53.714;11.372;2024-01-30T06:30:56;102338.25;;;1.63;100.00
61786;BME280;47692;53.714;11.372;2024-01-30T06:33:22;102332.91;;;1.58;100.00
61786;BME280;47692;53.714;11.372;2024-01-30T06:35:47;102334.47;;;1.55;100.00
61786;BME280;47692;53.714;11.372;2024-01-30T06:38:13;102341.50;;;1.59;100.00
61786;BME280;47692;53.714;11.372;2024-01-30T06:40:40;102342.31;;;1.79;100.00
61786;BME280;47692;53.714;11.372;2024-01-30T06:43:06;102348.56;;;1.86;100.00
61786;BME280;47692;53.714;11.372;2024-01-30T06:45:32;102353.31;;;1.98;100.00
61786;BME280;47692;53.714;11.372;2024-01-30T06:47:59;102354.50;;;2.06;100.00
61786;BME280;47692;53.714;11.372;2024-01-30T06:50:24;102356.50;;;2.13;100.00
61786;BME280;47692;53.714;11.372;2024-01-30T06:52:50;102353.09;;;2.14;100.00
61786;BME280;47692;53.714;11.372;2024-01-30T06:55:16;102356.59;;;2.16;100.00
61786;BME280;47692;53.714;11.372;2024-01-30T06:57:41;102352.28;;;2.15;100.00
61786;BME280;47692;53.714;11.372;2024-01-30T07:00:06;102347.94;;;2.14;100.00
61786;BME280;47692;53.714;11.372;2024-01-30T07:02:32;102360.25;;;2.21;100.00
61786;BME280;47692;53.714;11.372;2024-01-30T07:04:57;102360.59;;;2.31;100.00
61786;BME280;47692;53.714;11.372;2024-01-30T07:07:23;102351.09;;;2.30;100.00
61786;BME280;47692;53.714;11.372;2024-01-30T07:09:48;102353.91;;;2.36;100.00
61786;BME280;47692;53.714;11.372;2024-01-30T07:12:16;102352.16;;;2.35;100.00
61786;BME280;47692;53.714;11.372;2024-01-30T07:14:41;102348.66;;;2.33;100.00
61786;BME280;47692;53.714;11.372;2024-01-30T07:17:06;102352.50;;;2.44;100.00
61786;BME280;47692;53.714;11.372;2024-01-30T07:19:32;102351.06;;;2.52;100.00
61786;BME280;47692;53.714;11.372;2024-01-30T07:21:58;102359.66;;;2.51;100.00
61786;BME280;47692;53.714;11.372;2024-01-30T07:24:23;102351.97;;;2.53;100.00
61786;BME280;47692;53.714;11.372;2024-01-30T07:26:48;102353.63;;;2.52;100.00
61786;BME280;47692;53.714;11.372;2024-01-30T07:29:14;102354.59;;;2.54;100.00
61786;BME280;47692;53.714;11.372;2024-01-30T07:31:39;102359.09;;;2.60;100.00
61786;BME280;47692;53.714;11.372;2024-01-30T07:34:05;102348.56;;;2.54;100.00
61786;BME280;47692;53.714;11.372;2024-01-30T07:36:30;102352.06;;;2.56;100.00
61786;BME280;47692;53.714;11.372;2024-01-30T07:38:56;102354.59;;;2.54;100.00
61786;BME280;47692;53.714;11.372;2024-01-30T07:41:21;102353.19;;;2.63;100.00
61786;BME280;47692;53.714;11.372;2024-01-30T07:43:46;102351.19;;;2.55;100.00
61786;BME280;47692;53.714;11.372;2024-01-30T07:46:12;102358.09;;;2.56;100.00
61786;BME280;47692;53.714;11.372;2024-01-30T07:48:37;102362.53;;;2.61;100.00
61786;BME280;47692;53.714;11.372;2024-01-30T07:51:02;102363.28;;;2.56;100.00
61786;BME280;47692;53.714;11.372;2024-01-30T07:53:29;102363.50;;;2.63;100.00
61786;BME280;47692;53.714;11.372;2024-01-30T07:55:54;102369.56;;;2.65;100.00
61786;BME280;47692;53.714;11.372;2024-01-30T07:58:19;102377.66;;;2.74;100.00
61786;BME280;47692;53.714;11.372;2024-01-30T08:00:45;102364.72;;;2.72;100.00
61786;BME280;47692;53.714;11.372;2024-01-30T08:03:10;102373.47;;;2.78;100.00
61786;BME280;47692;53.714;11.372;2024-01-30T08:05:35;102367.44;;;2.77;100.00
61786;BME280;47692;53.714;11.372;2024-01-30T08:08:01;102364.75;;;2.74;100.00
61786;BME280;47692;53.714;11.372;2024-01-30T08:10:26;102370.00;;;2.77;100.00
61786;BME280;47692;53.714;11.372;2024-01-30T08:12:51;102371.81;;;2.80;100.00
61786;BME280;47692;53.714;11.372;2024-01-30T08:15:17;102381.28;;;2.79;100.00
61786;BME280;47692;53.714;11.372;2024-01-30T08:17:42;102372.72;;;2.80;100.00
61786;BME280;47692;53.714;11.372;2024-01-30T08:20:08;102369.41;;;2.84;100.00
61786;BME280;47692;53.714;11.372;2024-01-30T08:22:37;102369.53;;;2.87;100.00
61786;BME280;47692;53.714;11.372;2024-01-30T08:25:03;102368.00;;;2.93;100.00
61786;BME280;47692;53.714;11.372;2024-01-30T08:27:28;102362.06;;;2.95;100.00
61786;BME280;47692;53.714;11.372;2024-01-30T08:29:54;102361.50;;;3.04;100.00
61786;BME280;47692;53.714;11.372;2024-01-30T08:32:19;102369.63;;;3.15;100.00
61786;BME280;47692;53.714;11.372;2024-01-30T08:34:45;102368.84;;;3.17;100.00
61786;BME280;47692;53.714;11.372;2024-01-30T08:37:10;102369.91;;;3.24;100.00
61786;BME280;47692;53.714;11.372;2024-01-30T08:39:35;102368.31;;;3.28;100.00
61786;BME280;47692;53.714;11.372;2024-01-30T08:42:01;102372.66;;;3.29;100.00
61786;BME280;47692;53.714;11.372;2024-01-30T08:44:26;102371.03;;;3.31;100.00
61786;BME280;47692;53.714;11.372;2024-01-30T08:46:52;102377.91;;;3.32;100.00
61786;BME280;47692;53.714;11.372;2024-01-30T08:49:21;102378.03;;;3.35;100.00
61786;BME280;47692;53.714;11.372;2024-01-30T08:51:46;102374.63;;;3.36;100.00
61786;BME280;47692;53.714;11.372;2024-01-30T08:54:12;102367.72;;;3.35;100.00
61786;BME280;47692;53.714;11.372;2024-01-30T08:56:38;102364.41;;;3.39;100.00
61786;BME280;47692;53.714;11.372;2024-01-30T08:59:03;102376.69;;;3.46;100.00
61786;BME280;47692;53.714;11.372;2024-01-30T09:01:29;102376.69;;;3.46;100.00
61786;BME280;47692;53.714;11.372;2024-01-30T09:03:54;102378.44;;;3.47;100.00
61786;BME280;47692;53.714;11.372;2024-01-30T09:06:19;102369.97;;;3.51;100.00
61786;BME280;47692;53.714;11.372;2024-01-30T09:08:45;102378.94;;;3.63;100.00
61786;BME280;47692;53.714;11.372;2024-01-30T09:11:14;102373.88;;;3.66;100.00
61786;BME280;47692;53.714;11.372;2024-01-30T09:13:41;102372.16;;;3.66;100.00
61786;BME280;47692;53.714;11.372;2024-01-30T09:16:07;102370.56;;;3.70;100.00
61786;BME280;47692;53.714;11.372;2024-01-30T09:18:32;102367.41;;;3.79;100.00
61786;BME280;47692;53.714;11.372;2024-01-30T09:20:58;102367.44;;;3.80;100.00
61786;BME280;47692;53.714;11.372;2024-01-30T09:23:24;102365.78;;;3.82;100.00
61786;BME280;47692;53.714;11.372;2024-01-30T09:25:50;102365.78;;;3.82;100.00
61786;BME280;47692;53.714;11.372;2024-01-30T09:28:17;102365.03;;;3.86;100.00
61786;BME280;47692;53.714;11.372;2024-01-30T09:30:43;102375.56;;;3.93;100.00
61786;BME280;47692;53.714;11.372;2024-01-30T09:33:08;102370.53;;;3.96;100.00
61786;BME280;47692;53.714;11.372;2024-01-30T09:35:33;102375.06;;;4.03;100.00
61786;BME280;47692;53.714;11.372;2024-01-30T09:37:59;102375.13;;;4.06;100.00
61786;BME280;47692;53.714;11.372;2024-01-30T09:40:24;102375.44;;;4.15;100.00
61786;BME280;47692;53.714;11.372;2024-01-30T09:42:51;102372.09;;;4.19;100.00
61786;BME280;47692;53.714;11.372;2024-01-30T09:45:19;102373.16;;;4.26;100.00
61786;BME280;47692;53.714;11.372;2024-01-30T09:47:45;102374.13;;;4.30;100.00
61786;BME280;47692;53.714;11.372;2024-01-30T09:50:13;102377.00;;;4.39;100.00
61786;BME280;47692;53.714;11.372;2024-01-30T09:52:39;102377.19;;;4.45;100.00
61786;BME280;47692;53.714;11.372;2024-01-30T09:55:05;102366.72;;;4.42;100.00
61786;BME280;47692;53.714;11.372;2024-01-30T09:57:30;102369.59;;;4.51;100.00
61786;BME280;47692;53.714;11.372;2024-01-30T09:59:56;102370.66;;;4.60;100.00
61786;BME280;47692;53.714;11.372;2024-01-30T10:02:22;102362.91;;;4.60;100.00
61786;BME280;47692;53.714;11.372;2024-01-30T10:04:51;102362.88;;;4.58;100.00
61786;BME280;47692;53.714;11.372;2024-01-30T10:07:17;102369.00;;;4.62;100.00
61786;BME280;47692;53.714;11.372;2024-01-30T10:09:43;102353.28;;;4.54;100.00
61786;BME280;47692;53.714;11.372;2024-01-30T10:12:09;102349.97;;;4.60;100.00
61786;BME280;47692;53.714;11.372;2024-01-30T10:14:41;102342.28;;;4.61;100.00
61786;BME280;47692;53.714;11.372;2024-01-30T10:17:08;102340.63;;;4.65;100.00
61786;BME280;47692;53.714;11.372;2024-01-30T10:19:34;102341.69;;;4.72;100.00
61786;BME280;47692;53.714;11.372;2024-01-30T10:22:00;102340.97;;;4.77;100.00
61786;BME280;47692;53.714;11.372;2024-01-30T10:24:26;102347.19;;;4.84;100.00
61786;BME280;47692;53.714;11.372;2024-01-30T10:26:51;102344.75;;;4.89;100.00
61786;BME280;47692;53.714;11.372;2024-01-30T10:29:17;102355.34;;;4.98;100.00
61786;BME280;47692;53.714;11.372;2024-01-30T10:31:42;102354.56;;;5.02;100.00
61786;BME280;47692;53.714;11.372;2024-01-30T10:34:08;102359.00;;;5.06;100.00
61786;BME280;47692;53.714;11.372;2024-01-30T10:36:41;102348.72;;;5.09;100.00
61786;BME280;47692;53.714;11.372;2024-01-30T10:39:11;102353.28;;;5.20;100.00
61786;BME280;47692;53.714;11.372;2024-01-30T10:41:47;102362.47;;;5.40;100.00
61786;BME280;47692;53.714;11.372;2024-01-30T10:44:19;102366.97;;;5.47;99.69
61786;BME280;47692;53.714;11.372;2024-01-30T10:46:51;102364.53;;;5.55;98.70
61786;BME280;47692;53.714;11.372;2024-01-30T10:49:21;102353.38;;;5.58;98.27
61786;BME280;47692;53.714;11.372;2024-01-30T10:51:49;102360.75;;;5.77;97.93
61786;BME280;47692;53.714;11.372;2024-01-30T10:54:15;102363.56;;;5.87;98.00
61786;BME280;47692;53.714;11.372;2024-01-30T10:56:41;102362.84;;;5.94;96.84
61786;BME280;47692;53.714;11.372;2024-01-30T10:59:08;102363.00;;;5.98;95.98
61786;BME280;47692;53.714;11.372;2024-01-30T11:01:34;102363.13;;;6.03;95.53
61786;BME280;47692;53.714;11.372;2024-01-30T11:04:00;102343.88;;;5.95;95.15
61786;BME280;47692;53.714;11.372;2024-01-30T11:06:26;102352.44;;;5.91;94.83
61786;BME280;47692;53.714;11.372;2024-01-30T11:09:05;102343.81;;;5.92;95.21
61786;BME280;47692;53.714;11.372;2024-01-30T11:11:47;102330.00;;;5.93;94.83
61786;BME280;47692;53.714;11.372;2024-01-30T11:14:12;102319.56;;;5.90;94.69
61786;BME280;47692;53.714;11.372;2024-01-30T11:16:39;102311.75;;;5.88;94.67
61786;BME280;47692;53.714;11.372;2024-01-30T11:19:10;102319.34;;;5.80;94.91
61786;BME280;47692;53.714;11.372;2024-01-30T11:21:42;102320.97;;;5.75;94.92
61786;BME280;47692;53.714;11.372;2024-01-30T11:24:08;102324.47;;;5.77;94.75
61786;BME280;47692;53.714;11.372;2024-01-30T11:26:33;102305.38;;;5.74;95.19
61786;BME280;47692;53.714;11.372;2024-01-30T11:29:03;102296.75;;;5.73;95.11
61786;BME280;47692;53.714;11.372;2024-01-30T11:31:29;102290.69;;;5.74;95.10
61786;BME280;47692;53.714;11.372;2024-01-30T11:33:56;102295.13;;;5.78;95.71
61786;BME280;47692;53.714;11.372;2024-01-30T11:36:25;102286.56;;;5.82;95.93
61786;BME280;47692;53.714;11.372;2024-01-30T11:38:51;102293.56;;;5.87;95.94
61786;BME280;47692;53.714;11.372;2024-01-30T11:41:17;102294.59;;;5.93;95.92
61786;BME280;47692;53.714;11.372;2024-01-30T11:43:43;102275.41;;;5.87;95.51
61786;BME280;47692;53.714;11.372;2024-01-30T11:46:08;102279.84;;;5.91;95.56
61786;BME280;47692;53.714;11.372;2024-01-30T11:48:35;102273.03;;;5.96;95.24
61786;BME280;47692;53.714;11.372;2024-01-30T11:51:00;102271.38;;;5.98;95.39
61786;BME280;47692;53.714;11.372;2024-01-30T11:53:27;102276.81;;;6.10;95.24
61786;BME280;47692;53.714;11.372;2024-01-30T11:55:52;102275.13;;;6.12;95.69
61786;BME280;47692;53.714;11.372;2024-01-30T11:58:18;102275.22;;;6.16;95.39
61786;BME280;47692;53.714;11.372;2024-01-30T12:00:53;102275.91;;;6.07;95.42
61786;BME280;47692;53.714;11.372;2024-01-30T12:03:18;102286.44;;;6.16;95.52
61786;BME280;47692;53.714;11.372;2024-01-30T12:05:43;102282.75;;;6.05;95.40
61786;BME280;47692;53.714;11.372;2024-01-30T12:08:15;102278.66;;;6.14;95.78
61786;BME280;47692;53.714;11.372;2024-01-30T12:10:40;102279.47;;;6.13;95.64
61786;BME280;47692;53.714;11.372;2024-01-30T12:13:06;102288.22;;;6.19;95.68
61786;BME280;47692;53.714;11.372;2024-01-30T12:15:31;102282.25;;;6.23;95.73
61786;BME280;47692;53.714;11.372;2024-01-30T12:18:07;102284.97;;;6.29;95.93
61786;BME280;47692;53.714;11.372;2024-01-30T12:20:32;102273.88;;;6.36;95.81
61786;BME280;47692;53.714;11.372;2024-01-30T12:22:58;102276.56;;;6.41;95.75
61786;BME280;47692;53.714;11.372;2024-01-30T12:25:23;102266.06;;;6.35;95.52
61786;BME280;47692;53.714;11.372;2024-01-30T12:27:49;102264.38;;;6.37;95.50
61786;BME280;47692;53.714;11.372;2024-01-30T12:30:16;102264.53;;;6.44;95.80
61786;BME280;47692;53.714;11.372;2024-01-30T12:32:44;102261.97;;;6.47;95.69
61786;BME280;47692;53.714;11.372;2024-01-30T12:35:17;102258.66;;;6.55;95.63
61786;BME280;47692;53.714;11.372;2024-01-30T12:37:43;102257.09;;;6.63;96.07
61786;BME280;47692;53.714;11.372;2024-01-30T12:40:10;102246.72;;;6.63;95.86